createdAt,value
2023-01-18T00:01:19.802Z,1.00
2023-01-18T00:03:48.245Z,1.20
2023-01-18T00:06:17.806Z,1.17
2023-01-18T00:08:45.529Z,1.30
2023-01-18T00:11:16.050Z,1.40
2023-01-18T00:13:44.248Z,1.30
2023-01-18T00:16:15.048Z,1.42
2023-01-18T00:18:43.603Z,2.00
2023-01-18T00:21:12.373Z,1.52
2023-01-18T00:23:40.270Z,1.70
2023-01-18T00:26:11.058Z,1.55
2023-01-18T00:28:39.878Z,1.60
2023-01-18T00:31:16.105Z,1.45
2023-01-18T00:33:45.732Z,1.05
2023-01-18T00:36:15.273Z,1.40
2023-01-18T00:38:43.744Z,1.30
2023-01-18T00:41:11.548Z,1.58
2023-01-18T00:43:39.296Z,1.70
2023-01-18T00:46:18.863Z,1.20
2023-01-18T00:48:47.037Z,1.52
2023-01-18T00:51:17.756Z,1.50
2023-01-18T00:53:45.881Z,1.42
2023-01-18T00:56:16.554Z,1.40
2023-01-18T00:58:45.059Z,1.50
2023-01-18T01:01:14.332Z,1.52
2023-01-18T01:04:00.692Z,1.10
2023-01-18T01:06:47.083Z,1.30
2023-01-18T01:09:27.002Z,1.77
2023-01-18T01:12:13.704Z,1.70
2023-01-18T01:15:03.979Z,1.33
2023-01-18T01:17:52.814Z,1.30
2023-01-18T01:20:40.239Z,1.70
2023-01-18T01:23:34.050Z,1.33
2023-01-18T01:26:09.178Z,1.60
2023-01-18T01:28:42.390Z,1.35
2023-01-18T01:31:13.166Z,1.08
2023-01-18T01:33:41.205Z,1.40
2023-01-18T01:36:17.425Z,1.48
2023-01-18T01:38:45.640Z,1.63
2023-01-18T01:41:31.532Z,1.30
2023-01-18T01:44:20.691Z,1.83
2023-01-18T01:46:52.785Z,1.45
2023-01-18T01:49:26.856Z,1.23
2023-01-18T01:52:05.454Z,1.40
2023-01-18T01:54:57.564Z,1.48
2023-01-18T01:57:36.912Z,1.33
2023-01-18T02:00:07.523Z,1.77
2023-01-18T02:02:42.661Z,1.27
2023-01-18T02:05:13.693Z,1.30
2023-01-18T02:07:41.677Z,1.38
2023-01-18T02:10:11.114Z,1.65
2023-01-18T02:12:44.246Z,1.30
2023-01-18T02:15:12.287Z,1.40
2023-01-18T02:17:43.301Z,1.30
2023-01-18T02:20:29.216Z,1.73
2023-01-18T02:23:17.984Z,1.23
2023-01-18T02:26:12.963Z,1.30
2023-01-18T02:28:46.151Z,1.30
2023-01-18T02:31:24.246Z,1.30
2023-01-18T02:34:25.855Z,1.27
2023-01-18T02:37:04.860Z,1.58
2023-01-18T02:40:00.166Z,1.27
2023-01-18T02:42:47.454Z,1.20
2023-01-18T02:45:51.621Z,1.40
2023-01-18T02:48:24.450Z,1.30
2023-01-18T02:50:52.694Z,1.30
2023-01-18T02:53:20.360Z,1.50
2023-01-18T02:55:54.011Z,1.40
2023-01-18T02:58:33.558Z,1.50
2023-01-18T03:01:35.120Z,1.23
2023-01-18T03:04:11.313Z,1.20
2023-01-18T03:06:42.472Z,1.52
2023-01-18T03:09:10.729Z,1.45
2023-01-18T03:12:03.053Z,1.20
2023-01-18T03:15:05.133Z,1.30
2023-01-18T03:17:50.225Z,1.30
2023-01-18T03:20:26.491Z,1.48
2023-01-18T03:23:21.473Z,1.30
2023-01-18T03:25:53.843Z,1.27
2023-01-18T03:28:47.268Z,1.42
2023-01-18T03:31:38.124Z,1.42
2023-01-18T03:34:30.183Z,1.50
2023-01-18T03:37:02.956Z,0.93
2023-01-18T03:39:36.544Z,1.85
2023-01-18T03:42:10.080Z,1.50
2023-01-18T03:44:43.802Z,1.42
2023-01-18T03:47:11.697Z,1.58
2023-01-18T03:49:39.761Z,1.40
2023-01-18T03:52:18.874Z,1.52
2023-01-18T03:54:57.221Z,1.45
2023-01-18T03:57:32.255Z,1.45
2023-01-18T04:00:01.670Z,1.50
2023-01-18T04:02:29.531Z,1.20
2023-01-18T04:04:58.705Z,1.90
2023-01-18T04:07:26.764Z,1.33
2023-01-18T04:09:55.265Z,1.23
2023-01-18T04:12:23.730Z,1.20
2023-01-18T04:14:52.303Z,1.30
2023-01-18T04:17:20.411Z,1.63
2023-01-18T04:19:48.483Z,1.58
2023-01-18T04:22:16.732Z,1.30
2023-01-18T04:24:45.470Z,1.35
2023-01-18T04:27:14.050Z,1.30
2023-01-18T04:29:42.872Z,1.60
2023-01-18T04:32:11.284Z,1.50
2023-01-18T04:34:39.810Z,1.40
2023-01-18T04:37:08.943Z,1.38
2023-01-18T04:39:37.314Z,1.52
2023-01-18T04:42:05.905Z,1.08
2023-01-18T04:44:34.072Z,1.25
2023-01-18T04:47:02.441Z,1.58
2023-01-18T04:49:30.735Z,1.20
2023-01-18T04:51:59.042Z,1.33
2023-01-18T04:54:28.433Z,1.20
2023-01-18T04:56:56.782Z,1.45
2023-01-18T04:59:25.263Z,1.65
2023-01-18T05:01:53.742Z,1.48
2023-01-18T05:04:22.161Z,1.27
2023-01-18T05:06:50.651Z,1.50
2023-01-18T05:09:19.129Z,1.60
2023-01-18T05:11:47.846Z,1.30
2023-01-18T05:14:16.560Z,1.40
2023-01-18T05:16:45.149Z,1.27
2023-01-18T05:19:13.643Z,1.20
2023-01-18T05:21:42.231Z,1.60
2023-01-18T05:24:11.249Z,1.30
2023-01-18T05:26:39.685Z,1.10
2023-01-18T05:29:08.405Z,1.40
2023-01-18T05:31:36.954Z,1.55
2023-01-18T05:34:05.435Z,1.48
2023-01-18T05:36:33.756Z,1.65
2023-01-18T05:39:02.027Z,1.67
2023-01-18T05:41:30.391Z,1.70
2023-01-18T05:43:58.870Z,1.98
2023-01-18T05:46:27.455Z,2.15
2023-01-18T05:48:59.766Z,1.70
2023-01-18T05:51:28.067Z,2.63
2023-01-18T05:53:56.817Z,2.83
2023-01-18T05:56:25.059Z,2.47
2023-01-18T05:58:53.535Z,2.38
2023-01-18T06:01:21.808Z,2.30
2023-01-18T06:03:50.085Z,2.17
2023-01-18T06:06:18.583Z,2.42
2023-01-18T06:08:46.845Z,2.55
2023-01-18T06:11:15.045Z,2.25
2023-01-18T06:13:43.136Z,2.20
2023-01-18T06:16:12.436Z,2.28
2023-01-18T06:18:41.797Z,2.20
2023-01-18T06:21:11.770Z,2.05
2023-01-18T06:23:40.247Z,2.00
2023-01-18T06:26:08.486Z,2.13
2023-01-18T06:28:36.645Z,1.63
2023-01-18T06:31:08.176Z,1.90
2023-01-18T06:33:36.539Z,1.70
2023-01-18T06:36:06.173Z,2.10
2023-01-18T06:38:34.807Z,1.88
2023-01-18T06:41:03.056Z,1.88
2023-01-18T06:43:31.368Z,1.90
2023-01-18T06:45:59.692Z,1.80
2023-01-18T06:48:28.924Z,1.95
2023-01-18T06:50:58.298Z,1.83
2023-01-18T06:53:27.098Z,1.60
2023-01-18T06:55:58.138Z,1.80
2023-01-18T06:58:27.876Z,1.95
2023-01-18T07:01:00.862Z,1.80
2023-01-18T07:03:33.956Z,2.00
2023-01-18T07:06:03.686Z,1.73
2023-01-18T07:08:32.613Z,2.00
2023-01-18T07:11:06.736Z,1.70
2023-01-18T07:13:35.731Z,1.63
2023-01-18T07:16:04.148Z,2.00
2023-01-18T07:18:32.620Z,1.80
2023-01-18T07:21:04.612Z,1.90
2023-01-18T07:23:36.693Z,1.70
2023-01-18T07:26:16.766Z,2.00
2023-01-18T07:28:46.492Z,2.00
2023-01-18T07:31:16.624Z,1.70
2023-01-18T07:33:45.178Z,2.15
2023-01-18T07:36:14.413Z,1.92
2023-01-18T07:38:43.068Z,1.95
2023-01-18T07:41:14.955Z,2.20
2023-01-18T07:43:45.167Z,2.25
2023-01-18T07:46:17.202Z,2.20
2023-01-18T07:48:46.112Z,2.10
2023-01-18T07:51:15.669Z,2.00
2023-01-18T07:53:44.857Z,1.88
2023-01-18T07:56:16.035Z,2.00
2023-01-18T07:58:45.419Z,1.65
2023-01-18T08:01:17.397Z,1.92
2023-01-18T08:03:48.376Z,2.20
2023-01-18T08:06:21.569Z,2.03
2023-01-18T08:08:49.892Z,2.45
2023-01-18T08:11:19.649Z,2.05
2023-01-18T08:13:49.630Z,2.00
2023-01-18T08:16:18.691Z,2.42
2023-01-18T08:18:50.508Z,2.00
2023-01-18T08:21:19.114Z,2.17
2023-01-18T08:23:47.553Z,1.83
2023-01-18T08:26:16.424Z,2.03
2023-01-18T08:28:45.187Z,1.92
2023-01-18T08:31:17.246Z,2.10
2023-01-18T08:33:48.976Z,1.73
2023-01-18T08:36:23.104Z,1.60
2023-01-18T08:38:53.604Z,2.05
2023-01-18T08:41:28.594Z,1.90
2023-01-18T08:43:58.005Z,2.10
2023-01-18T08:46:26.728Z,2.20
2023-01-18T08:48:56.880Z,1.90
2023-01-18T08:51:26.388Z,2.17
2023-01-18T08:53:57.527Z,1.95
2023-01-18T08:56:26.159Z,1.90
2023-01-18T08:58:54.837Z,2.03
2023-01-18T09:01:23.925Z,2.00
2023-01-18T09:03:56.880Z,1.90
2023-01-18T09:06:25.998Z,2.22
2023-01-18T09:08:54.499Z,1.52
2023-01-18T09:11:22.666Z,1.83
2023-01-18T09:14:02.640Z,2.10
2023-01-18T09:16:32.037Z,1.90
2023-01-18T09:19:01.653Z,1.90
2023-01-18T09:21:30.125Z,2.15
2023-01-18T09:23:59.854Z,1.90
2023-01-18T09:26:30.650Z,2.05
2023-01-18T09:28:58.806Z,1.90
2023-01-18T09:31:28.412Z,2.03
2023-01-18T09:34:06.369Z,1.90
2023-01-18T09:36:46.418Z,2.20
2023-01-18T09:39:14.813Z,1.90
2023-01-18T09:41:47.774Z,1.80
2023-01-18T09:44:42.652Z,1.75
2023-01-18T09:47:18.572Z,1.92
2023-01-18T09:50:13.495Z,1.90
2023-01-18T09:53:05.503Z,2.00
2023-01-18T09:55:42.461Z,2.30
2023-01-18T09:58:49.108Z,2.00
2023-01-18T10:01:23.874Z,2.22
2023-01-18T10:04:21.738Z,2.03
2023-01-18T10:07:15.331Z,2.00
2023-01-18T10:09:49.813Z,2.25
2023-01-18T10:12:22.077Z,2.50
2023-01-18T10:15:20.693Z,2.17
2023-01-18T10:17:52.624Z,1.92
2023-01-18T10:20:35.272Z,2.22
2023-01-18T10:23:12.804Z,2.10
2023-01-18T10:25:52.700Z,2.20
2023-01-18T10:28:30.113Z,1.90
2023-01-18T10:31:22.262Z,2.10
2023-01-18T10:33:55.869Z,2.22
2023-01-18T10:36:34.674Z,2.25
2023-01-18T10:39:06.546Z,2.10
2023-01-18T10:41:41.166Z,1.92
2023-01-18T10:44:09.789Z,2.20
2023-01-18T10:46:38.298Z,2.00
2023-01-18T10:49:08.926Z,2.22
2023-01-18T10:51:39.229Z,2.30
2023-01-18T10:54:19.498Z,2.03
2023-01-18T10:56:48.438Z,2.30
2023-01-18T10:59:30.629Z,2.05
2023-01-18T11:01:59.557Z,2.00
2023-01-18T11:04:33.265Z,1.83
2023-01-18T11:07:03.867Z,2.10
2023-01-18T11:09:44.815Z,2.10
2023-01-18T11:12:41.542Z,2.45
2023-01-18T11:15:15.796Z,1.95
2023-01-18T11:18:06.414Z,2.10
2023-01-18T11:20:48.281Z,2.00
2023-01-18T11:23:25.773Z,2.00
2023-01-18T11:26:01.713Z,1.95
2023-01-18T11:28:51.608Z,2.30
2023-01-18T11:31:23.400Z,2.10
2023-01-18T11:33:54.884Z,1.88
2023-01-18T11:36:39.289Z,2.50
2023-01-18T11:39:31.127Z,2.10
2023-01-18T11:42:38.083Z,1.90
2023-01-18T11:45:30.290Z,1.85
2023-01-18T11:48:12.080Z,2.20
2023-01-18T11:50:54.408Z,2.20
2023-01-18T11:53:50.650Z,2.10
2023-01-18T11:56:42.802Z,1.70
2023-01-18T11:59:26.507Z,1.90
2023-01-18T12:02:09.295Z,2.10
2023-01-18T12:04:52.113Z,1.65
2023-01-18T12:07:35.155Z,1.90
2023-01-18T12:10:04.922Z,1.85
2023-01-18T12:13:02.835Z,1.70
2023-01-18T12:16:04.918Z,2.05
2023-01-18T12:18:45.183Z,1.83
2023-01-18T12:21:32.280Z,1.80
2023-01-18T12:24:40.445Z,1.95
2023-01-18T12:27:34.384Z,1.75
2023-01-18T12:30:16.766Z,2.42
2023-01-18T12:33:06.839Z,1.67
2023-01-18T12:35:52.196Z,1.80
2023-01-18T12:38:31.743Z,1.35
2023-01-18T12:41:08.783Z,1.52
2023-01-18T12:43:46.225Z,1.38
2023-01-18T12:46:39.185Z,1.58
2023-01-18T12:49:19.160Z,1.33
2023-01-18T12:52:12.940Z,1.20
2023-01-18T12:54:56.436Z,1.88
2023-01-18T12:57:26.288Z,1.70
2023-01-18T12:59:59.665Z,1.52
2023-01-18T13:02:38.839Z,1.60
2023-01-18T13:05:23.331Z,1.60
2023-01-18T13:08:21.688Z,1.45
2023-01-18T13:10:51.226Z,1.38
2023-01-18T13:13:27.259Z,1.50
2023-01-18T13:16:36.292Z,1.60
2023-01-18T13:19:09.144Z,1.65
2023-01-18T13:22:05.909Z,1.73
2023-01-18T13:25:09.280Z,1.75
2023-01-18T13:27:38.238Z,1.48
2023-01-18T13:30:17.210Z,1.65
2023-01-18T13:32:47.867Z,1.55
2023-01-18T13:35:33.816Z,1.15
2023-01-18T13:38:11.495Z,1.38
2023-01-18T13:40:44.157Z,1.40
2023-01-18T13:43:36.702Z,1.42
2023-01-18T13:46:11.813Z,1.20
2023-01-18T13:48:54.625Z,1.30
2023-01-18T13:51:40.837Z,1.55
2023-01-18T13:54:21.866Z,1.40
2023-01-18T13:57:04.510Z,1.40
2023-01-18T13:59:38.360Z,1.17
2023-01-18T14:05:16.133Z,1.38
2023-01-18T14:07:48.338Z,1.02
2023-01-18T14:10:33.671Z,1.50
2023-01-18T14:13:08.605Z,1.08
2023-01-18T14:15:42.834Z,1.15
2023-01-18T14:18:27.896Z,1.38
2023-01-18T14:21:22.172Z,1.27
2023-01-18T14:24:09.967Z,1.00
2023-01-18T14:26:40.713Z,1.20
2023-01-18T14:29:16.799Z,1.00
2023-01-18T14:31:51.721Z,1.08
2023-01-18T14:34:41.164Z,1.00
2023-01-18T14:37:35.834Z,1.15
2023-01-18T14:40:13.187Z,1.00
2023-01-18T14:42:49.018Z,1.10
2023-01-18T14:45:27.384Z,0.95
2023-01-18T14:48:19.880Z,1.40
2023-01-18T14:50:51.270Z,1.10
2023-01-18T14:53:54.362Z,1.52
2023-01-18T14:56:40.267Z,0.95
2023-01-18T14:59:31.458Z,0.93
2023-01-18T15:02:02.475Z,0.75
2023-01-18T15:04:33.254Z,1.10
2023-01-18T15:07:07.173Z,1.00
2023-01-18T15:09:38.494Z,1.35
2023-01-18T15:12:10.902Z,1.30
2023-01-18T15:14:47.672Z,1.23
2023-01-18T15:17:23.282Z,1.27
2023-01-18T15:20:00.041Z,0.80
2023-01-18T15:22:34.793Z,0.98
2023-01-18T15:25:04.050Z,1.08
2023-01-18T15:27:33.396Z,1.00
2023-01-18T15:30:02.539Z,0.95
2023-01-18T15:32:33.286Z,1.17
2023-01-18T15:35:03.414Z,1.13
2023-01-18T15:37:34.506Z,1.00
2023-01-18T15:40:14.401Z,0.88
2023-01-18T15:42:51.918Z,0.93
2023-01-18T15:45:33.828Z,0.85
2023-01-18T15:48:07.422Z,0.90
2023-01-18T15:50:50.772Z,0.80
2023-01-18T15:53:21.011Z,0.90
2023-01-18T15:55:53.736Z,0.85
2023-01-18T15:58:25.534Z,0.98
2023-01-18T16:01:03.772Z,1.33
2023-01-18T16:03:54.308Z,0.93
2023-01-18T16:06:22.714Z,1.02
2023-01-18T16:08:57.966Z,1.08
2023-01-18T16:11:58.023Z,1.15
2023-01-18T16:14:29.392Z,1.15
2023-01-18T16:17:13.435Z,1.40
2023-01-18T16:19:54.158Z,1.13
2023-01-18T16:22:37.556Z,1.52
2023-01-18T16:25:18.380Z,1.42
2023-01-18T16:27:53.033Z,1.60
2023-01-18T16:30:29.275Z,2.10
2023-01-18T16:33:12.527Z,2.67
2023-01-18T16:35:42.266Z,1.70
2023-01-18T16:38:15.939Z,1.70
2023-01-18T16:43:20.002Z,1.75
2023-01-18T16:45:50.662Z,1.70
2023-01-18T16:48:22.198Z,1.58
2023-01-18T16:50:51.215Z,1.50
2023-01-18T16:53:19.746Z,1.77
2023-01-18T16:55:51.121Z,2.08
2023-01-18T16:58:21.512Z,1.90
2023-01-18T17:01:22.350Z,1.63
2023-01-18T17:03:51.780Z,1.70
2023-01-18T17:06:22.407Z,2.20
2023-01-18T17:08:51.049Z,1.58
2023-01-18T17:11:19.542Z,1.95
2023-01-18T17:13:48.228Z,1.60
2023-01-18T17:16:19.098Z,1.67
2023-01-18T17:18:48.338Z,1.70
2023-01-18T17:21:16.575Z,1.98
2023-01-18T17:23:45.751Z,1.55
2023-01-18T17:26:16.090Z,1.58
2023-01-18T17:28:45.342Z,1.48
2023-01-18T17:31:14.027Z,1.67
2023-01-18T17:33:44.082Z,1.60
2023-01-18T17:36:12.459Z,1.90
2023-01-18T17:38:41.014Z,1.83
2023-01-18T17:41:22.847Z,2.08
2023-01-18T17:43:54.700Z,2.20
2023-01-18T17:46:23.326Z,1.95
2023-01-18T17:48:51.890Z,1.60
2023-01-18T17:51:21.286Z,2.00
2023-01-18T17:53:50.114Z,1.50
2023-01-18T17:56:19.043Z,1.75
2023-01-18T17:58:49.172Z,2.00
2023-01-18T18:01:18.366Z,1.95
2023-01-18T18:03:49.894Z,1.65
2023-01-18T18:06:30.105Z,1.88
2023-01-18T18:09:00.264Z,1.80
2023-01-18T18:11:29.691Z,1.77
2023-01-18T18:13:59.539Z,1.80
2023-01-18T18:16:28.617Z,1.80
2023-01-18T18:18:58.503Z,1.75
2023-01-18T18:21:27.605Z,2.00
2023-01-18T18:23:56.213Z,1.80
2023-01-18T18:26:24.687Z,2.03
2023-01-18T18:28:53.525Z,1.80
2023-01-18T18:31:22.243Z,1.90
2023-01-18T18:33:51.015Z,1.95
2023-01-18T18:36:19.604Z,1.55
2023-01-18T18:38:48.291Z,1.80
2023-01-18T18:41:17.151Z,2.00
2023-01-18T18:43:45.630Z,2.05
2023-01-18T18:46:14.877Z,2.10
2023-01-18T18:48:43.433Z,1.88
2023-01-18T18:51:11.831Z,1.58
2023-01-18T18:53:40.226Z,1.70
2023-01-18T18:56:10.396Z,1.90
2023-01-18T18:58:40.602Z,1.73
2023-01-18T19:01:22.772Z,1.80
2023-01-18T19:03:53.456Z,2.15
2023-01-18T19:06:23.812Z,1.77
2023-01-18T19:08:53.338Z,2.05
2023-01-18T19:11:22.271Z,2.08
2023-01-18T19:13:50.682Z,2.05
2023-01-18T19:16:19.316Z,1.80
2023-01-18T19:18:47.953Z,1.73
2023-01-18T19:21:16.332Z,1.70
2023-01-18T19:23:45.292Z,1.77
2023-01-18T19:26:13.946Z,1.90
2023-01-18T19:28:42.610Z,1.92
2023-01-18T19:31:12.222Z,1.90
2023-01-18T19:33:47.473Z,1.83
2023-01-18T19:36:16.960Z,1.85
2023-01-18T19:38:50.698Z,1.88
2023-01-18T19:41:21.627Z,1.75
2023-01-18T19:43:50.742Z,1.85
2023-01-18T19:46:20.514Z,2.15
2023-01-18T19:48:49.138Z,1.90
2023-01-18T19:51:22.523Z,1.90
2023-01-18T19:53:55.844Z,2.20
2023-01-18T19:56:29.402Z,1.67
2023-01-18T19:58:58.236Z,2.10
2023-01-18T20:01:36.406Z,1.77
2023-01-18T20:04:07.151Z,1.88
2023-01-18T20:06:38.836Z,1.75
2023-01-18T20:09:18.923Z,2.10
2023-01-18T20:11:49.389Z,1.60
2023-01-18T20:14:18.951Z,2.00
2023-01-18T20:16:48.243Z,2.00
2023-01-18T20:19:17.923Z,2.00
2023-01-18T20:21:46.215Z,1.80
2023-01-18T20:24:14.687Z,1.80
2023-01-18T20:26:43.432Z,1.73
2023-01-18T20:29:11.880Z,1.98
2023-01-18T20:31:41.992Z,1.92
2023-01-18T20:34:11.477Z,1.98
2023-01-18T20:36:39.938Z,1.90
2023-01-18T20:39:09.614Z,1.67
2023-01-18T20:41:38.160Z,1.88
2023-01-18T20:44:06.320Z,2.10
2023-01-18T20:46:35.397Z,1.88
2023-01-18T20:49:05.160Z,2.08
2023-01-18T20:51:33.978Z,2.08
2023-01-18T20:54:02.665Z,1.95
2023-01-18T20:56:32.336Z,2.45
2023-01-18T20:59:00.659Z,2.53
2023-01-18T21:01:32.730Z,2.10
2023-01-18T21:04:03.531Z,1.92
2023-01-18T21:06:32.423Z,1.83
2023-01-18T21:09:01.893Z,1.88
2023-01-18T21:11:30.636Z,1.90
2023-01-18T21:14:03.422Z,1.98
2023-01-18T21:16:32.122Z,1.75
2023-01-18T21:19:00.858Z,1.80
2023-01-18T21:21:30.475Z,1.88
2023-01-18T21:23:59.734Z,2.10
2023-01-18T21:26:28.533Z,2.17
2023-01-18T21:28:57.217Z,2.00
2023-01-18T21:31:26.024Z,1.90
2023-01-18T21:33:55.747Z,2.33
2023-01-18T21:36:24.255Z,1.95
2023-01-18T21:38:53.744Z,2.10
2023-01-18T21:41:40.066Z,1.88
2023-01-18T21:44:26.446Z,2.20
2023-01-18T21:46:54.743Z,1.95
2023-01-18T21:52:48.940Z,1.83
2023-01-18T21:55:18.320Z,2.20
2023-01-18T21:58:06.473Z,1.90
2023-01-18T22:00:40.357Z,2.15
2023-01-18T22:03:09.788Z,2.20
2023-01-18T22:05:40.641Z,2.05
2023-01-18T22:08:09.962Z,2.10
2023-01-18T22:10:37.732Z,1.80
2023-01-18T22:13:05.764Z,2.10
2023-01-18T22:15:33.574Z,1.83
2023-01-18T22:18:02.082Z,1.90
2023-01-18T22:20:31.615Z,1.90
2023-01-18T22:22:59.732Z,2.00
2023-01-18T22:25:27.543Z,1.85
2023-01-18T22:27:55.630Z,1.95
2023-01-18T22:30:25.393Z,2.10
2023-01-18T22:32:53.539Z,1.90
2023-01-18T22:35:21.622Z,2.10
2023-01-18T22:37:49.795Z,2.00
2023-01-18T22:40:17.879Z,2.00
2023-01-18T22:42:45.710Z,1.90
2023-01-18T22:45:13.598Z,1.90
2023-01-18T22:47:41.487Z,2.15
2023-01-18T22:50:10.002Z,1.90
2023-01-18T22:52:37.966Z,2.08
2023-01-18T22:55:06.466Z,2.00
2023-01-18T22:57:34.332Z,2.03
2023-01-18T23:00:02.958Z,2.05
2023-01-18T23:02:33.269Z,2.05
2023-01-18T23:05:01.183Z,1.90
2023-01-18T23:07:29.044Z,1.92
2023-01-18T23:09:56.947Z,1.88
2023-01-18T23:12:24.898Z,2.03
2023-01-18T23:15:11.270Z,1.88
2023-01-18T23:17:39.140Z,2.08
2023-01-18T23:20:10.487Z,2.38
2023-01-18T23:22:38.304Z,2.10
2023-01-18T23:25:06.860Z,1.90
2023-01-18T23:27:34.621Z,2.10
2023-01-18T23:30:03.291Z,2.17
2023-01-18T23:32:31.699Z,2.20
2023-01-18T23:35:00.649Z,1.90
2023-01-18T23:37:28.545Z,2.15
2023-01-18T23:40:15.568Z,2.00
2023-01-18T23:43:02.474Z,2.13
2023-01-18T23:45:48.484Z,2.00
2023-01-18T23:48:37.040Z,1.80
2023-01-18T23:51:24.158Z,2.00
2023-01-18T23:54:10.836Z,1.92
2023-01-18T23:56:38.636Z,2.05
2023-01-18T23:59:06.457Z,2.03
